Time;durP1;ratioP1;P1;durP2;ratioP2;P2;SDS_P1;SDS_P2;PMS_P1;PMS_P2;Temp;Humidity;BMP_temperature;BMP_pressure;BME280_temperature;BME280_humidity;BME280_pressure;Samples;Min_cycle;Max_cycle;Signal;HPM_P1;HPM_P2
2021/09/14 00:02:11;;;;;;;3.42;2.30;;;;;;;12.41;100.00;101596.53;6278367;28;20055;-78
2021/09/14 00:05:12;;;;;;;4.32;2.05;;;;;;;12.37;100.00;101592.31;6278499;28;20056;-78
2021/09/14 00:08:14;;;;;;;3.85;2.00;;;;;;;12.40;100.00;101594.81;6279014;28;20082;-78
2021/09/14 00:11:15;;;;;;;3.38;2.33;;;;;;;12.37;100.00;101594.09;6276978;28;20060;-78
2021/09/14 00:14:17;;;;;;;4.03;2.08;;;;;;;12.35;100.00;101588.91;6276927;28;20485;-78
2021/09/14 00:17:19;;;;;;;3.47;1.95;;;;;;;12.35;100.00;101591.56;6276749;28;20053;-78
2021/09/14 00:20:20;;;;;;;4.75;2.50;;;;;;;12.30;100.00;101590.88;6277312;28;20052;-78
2021/09/14 00:23:22;;;;;;;3.85;2.28;;;;;;;12.29;100.00;101578.63;6277423;28;20052;-77
2021/09/14 00:26:23;;;;;;;3.92;2.15;;;;;;;12.28;100.00;101584.84;6285145;22;20046;-75
2021/09/14 00:29:26;;;;;;;5.45;3.13;;;;;;;12.28;100.00;101582.22;6222734;28;20068;-74
2021/09/14 00:32:27;;;;;;;2.83;1.80;;;;;;;12.26;100.00;101577.91;6222570;28;20456;-74
2021/09/14 00:35:28;;;;;;;6.50;2.35;;;;;;;12.26;100.00;101584.03;6222603;28;20521;-76
2021/09/14 00:38:30;;;;;;;3.17;2.05;;;;;;;12.25;100.00;101578.84;6222495;28;20049;-76
2021/09/14 00:41:31;;;;;;;3.28;2.13;;;;;;;12.21;100.00;101578.13;6222541;28;20050;-76
2021/09/14 00:44:34;;;;;;;3.60;1.80;;;;;;;12.19;100.00;101572.94;6222188;28;20054;-76
2021/09/14 00:47:35;;;;;;;5.00;2.67;;;;;;;12.17;100.00;101569.53;6222512;28;20057;-75
2021/09/14 00:50:36;;;;;;;3.05;1.80;;;;;;;12.18;100.00;101562.50;6222423;28;20050;-76
2021/09/14 00:53:38;;;;;;;2.58;1.80;;;;;;;12.19;100.00;101564.19;6222019;28;20046;-76
2021/09/14 00:56:39;;;;;;;4.22;1.92;;;;;;;12.14;100.00;101559.13;6221731;28;20066;-76
2021/09/14 00:59:41;;;;;;;5.30;2.78;;;;;;;12.13;100.00;101556.59;6222187;28;20041;-76
2021/09/14 01:02:43;;;;;;;6.57;2.17;;;;;;;12.11;100.00;101554.00;6222305;28;20157;-76
2021/09/14 01:05:44;;;;;;;3.17;1.92;;;;;;;12.09;100.00;101555.03;6221807;28;20390;-75
2021/09/14 01:08:46;;;;;;;3.72;2.53;;;;;;;12.03;100.00;101552.66;6222217;28;20053;-76
2021/09/14 01:11:48;;;;;;;4.93;2.13;;;;;;;11.96;100.00;101553.88;6222075;28;20069;-76
2021/09/14 01:14:54;;;;;;;3.58;2.10;;;;;;;11.85;100.00;101541.19;6222075;28;20049;-76
2021/09/14 01:17:55;;;;;;;4.63;2.53;;;;;;;11.83;100.00;101549.16;6221932;28;20053;-76
2021/09/14 01:20:57;;;;;;;4.63;2.42;;;;;;;11.87;100.00;101553.38;6222018;28;20049;-76
2021/09/14 01:24:00;;;;;;;8.90;2.88;;;;;;;11.92;100.00;101550.53;6221548;28;20464;-76
2021/09/14 01:27:02;;;;;;;4.43;2.30;;;;;;;11.94;100.00;101546.03;6221950;28;20520;-75
2021/09/14 01:30:13;;;;;;;4.00;2.60;;;;;;;12.00;100.00;101550.19;6221891;28;20053;-76
2021/09/14 01:33:15;;;;;;;5.00;2.28;;;;;;;11.93;100.00;101547.81;6221879;28;20465;-76
2021/09/14 01:36:17;;;;;;;7.25;2.78;;;;;;;11.90;100.00;101552.38;6221569;28;20065;-76
2021/09/14 01:39:20;;;;;;;5.30;1.95;;;;;;;11.89;100.00;101553.28;6221662;28;20046;-76
2021/09/14 01:42:21;;;;;;;3.28;1.90;;;;;;;11.80;100.00;101556.31;6221702;28;20421;-76
2021/09/14 01:45:23;;;;;;;3.67;2.08;;;;;;;11.76;100.00;101555.59;6216059;28;20052;-76
2021/09/14 01:48:24;;;;;;;2.80;2.25;;;;;;;11.73;100.00;101547.00;6221441;28;20050;-76
2021/09/14 01:51:26;;;;;;;3.47;2.30;;;;;;;11.69;100.00;101546.28;6221365;28;20053;-76
2021/09/14 01:54:28;;;;;;;4.72;1.88;;;;;;;11.69;100.00;101541.84;6212702;28;20050;-76
2021/09/14 01:57:33;;;;;;;2.63;1.65;;;;;;;11.66;100.00;101541.13;6219047;28;20053;-76
2021/09/14 02:00:37;;;;;;;5.00;2.65;;;;;;;11.62;100.00;101539.56;6221170;28;20127;-75
2021/09/14 02:03:45;;;;;;;4.28;2.45;;;;;;;11.63;100.00;101546.56;6221304;28;20090;-76
2021/09/14 02:07:00;;;;;;;4.68;2.20;;;;;;;11.65;100.00;101540.28;6223124;28;20058;-76
2021/09/14 02:30:16;;;;;;;4.60;1.80;;;;;;;11.42;100.00;101529.94;6217430;28;20058;-76
2021/09/14 02:43:27;;;;;;;2.90;2.30;;;;;;;11.49;100.00;101531.38;6224955;28;20449;-75
2021/09/14 02:56:49;;;;;;;3.25;2.15;;;;;;;11.25;100.00;101535.06;6224546;28;20568;-76
2021/09/14 02:59:51;;;;;;;6.10;1.95;;;;;;;11.26;100.00;101528.88;6224945;28;20058;-76
2021/09/14 03:02:52;;;;;;;3.15;1.85;;;;;;;11.29;100.00;101534.88;6224587;28;20056;-76
2021/09/14 03:05:53;;;;;;;4.15;1.83;;;;;;;11.31;100.00;101542.69;6224623;28;20056;-76
2021/09/14 03:08:55;;;;;;;3.15;2.00;;;;;;;11.31;100.00;101534.78;6224645;28;20057;-76
2021/09/14 03:11:56;;;;;;;2.38;1.83;;;;;;;11.32;100.00;101540.00;6224677;28;20045;-75
2021/09/14 03:14:59;;;;;;;4.45;2.10;;;;;;;11.28;100.00;101535.81;6224239;28;20050;-76
2021/09/14 03:18:00;;;;;;;2.95;1.60;;;;;;;11.27;100.00;101531.47;6223758;28;20061;-75
2021/09/14 03:21:02;;;;;;;4.18;2.05;;;;;;;11.25;100.00;101533.28;6224416;28;20400;-75
2021/09/14 03:24:04;;;;;;;2.33;1.63;;;;;;;11.21;100.00;101534.34;6223924;28;20050;-75
2021/09/14 03:27:05;;;;;;;3.58;2.13;;;;;;;11.18;100.00;101531.88;6224143;28;20061;-76
2021/09/14 03:30:09;;;;;;;2.65;1.60;;;;;;;11.20;100.00;101529.16;6224046;28;20049;-75
2021/09/14 03:33:10;;;;;;;2.75;1.63;;;;;;;11.17;100.00;101525.75;6224085;28;20052;-75
2021/09/14 03:36:12;;;;;;;2.13;1.70;;;;;;;11.15;100.00;101530.22;6223573;28;20053;-75
2021/09/14 03:39:13;;;;;;;2.20;1.67;;;;;;;11.11;100.00;101533.88;6224003;28;20050;-75
2021/09/14 03:42:14;;;;;;;4.57;1.98;;;;;;;11.09;100.00;101524.38;6223971;28;20046;-75
2021/09/14 03:45:17;;;;;;;1.98;1.65;;;;;;;11.10;100.00;101520.81;6223912;28;20050;-75
2021/09/14 03:48:18;;;;;;;3.40;1.65;;;;;;;11.10;100.00;101526.06;6225984;28;20058;-75
2021/09/14 03:51:20;;;;;;;3.45;1.77;;;;;;;11.00;100.00;101528.25;6227880;28;20046;-75
2021/09/14 03:54:21;;;;;;;2.08;1.42;;;;;;;10.96;100.00;101513.50;6227944;28;20489;-75
2021/09/14 03:57:22;;;;;;;3.47;2.20;;;;;;;10.91;100.00;101518.13;6228283;28;20046;-75
2021/09/14 04:00:25;;;;;;;3.67;1.67;;;;;;;10.93;100.00;101514.50;6224893;28;20045;-75
2021/09/14 04:03:37;;;;;;;2.83;1.40;;;;;;;10.99;100.00;101518.66;6223395;28;20051;-75
2021/09/14 04:06:52;;;;;;;3.13;1.90;;;;;;;10.96;100.00;101510.03;6223670;28;20136;-75
2021/09/14 04:09:54;;;;;;;3.65;2.17;;;;;;;10.92;100.00;101504.91;6223155;28;20140;-75
2021/09/14 04:12:55;;;;;;;2.75;1.70;;;;;;;10.93;100.00;101511.00;6223238;28;20452;-75
2021/09/14 04:15:58;;;;;;;3.05;1.80;;;;;;;10.93;100.00;101506.59;6222914;28;20057;-75
2021/09/14 04:18:59;;;;;;;3.50;1.90;;;;;;;10.95;100.00;101514.44;6223157;28;20053;-75
2021/09/14 04:22:01;;;;;;;3.40;1.90;;;;;;;10.93;100.00;101509.22;6222908;28;20429;-75
2021/09/14 04:25:02;;;;;;;2.28;1.67;;;;;;;10.91;100.00;101510.22;6222894;28;20056;-74
2021/09/14 04:28:04;;;;;;;4.65;2.40;;;;;;;10.90;100.00;101513.75;6222538;28;20049;-75
2021/09/14 04:31:06;;;;;;;3.22;2.00;;;;;;;10.89;100.00;101509.41;6221948;28;20045;-75
2021/09/14 04:34:08;;;;;;;3.80;1.83;;;;;;;10.89;100.00;101502.38;6222607;28;20061;-75
2021/09/14 04:37:09;;;;;;;3.88;1.90;;;;;;;10.89;100.00;101506.78;6222799;28;20076;-75
2021/09/14 04:40:12;;;;;;;4.20;1.92;;;;;;;10.89;100.00;101505.00;6222699;28;20049;-74
2021/09/14 04:43:13;;;;;;;2.63;1.60;;;;;;;10.86;100.00;101499.91;6222415;28;20054;-75
2021/09/14 04:46:16;;;;;;;3.40;1.90;;;;;;;10.86;100.00;101497.28;6222249;28;20050;-75
2021/09/14 04:49:17;;;;;;;1.60;1.33;;;;;;;10.87;100.00;101506.88;6222376;28;20668;-75
2021/09/14 04:52:18;;;;;;;3.58;2.00;;;;;;;10.88;100.00;101492.78;6222394;28;20046;-75
2021/09/14 04:55:20;;;;;;;3.05;1.45;;;;;;;10.87;100.00;101488.47;6222172;28;20061;-74
2021/09/14 04:58:21;;;;;;;3.40;1.52;;;;;;;10.88;100.00;101492.78;6222178;28;20072;-75
2021/09/14 05:01:24;;;;;;;2.92;1.55;;;;;;;10.86;100.00;101499.06;6222265;28;20042;-75
2021/09/14 05:04:25;;;;;;;3.95;2.03;;;;;;;10.84;100.00;101499.09;6222164;28;20053;-75
2021/09/14 05:07:26;;;;;;;2.55;2.00;;;;;;;10.83;100.00;101504.44;6221940;28;20056;-75
2021/09/14 05:10:29;;;;;;;4.50;1.88;;;;;;;10.76;100.00;101503.81;6222360;28;20061;-75
2021/09/14 05:13:30;;;;;;;3.53;2.20;;;;;;;10.76;100.00;101500.34;6221057;28;20057;-75
2021/09/14 05:16:33;;;;;;;2.90;1.50;;;;;;;10.76;100.00;101506.44;6221864;28;20395;-75
2021/09/14 05:19:35;;;;;;;1.88;1.60;;;;;;;10.77;100.00;101502.06;6222091;28;20046;-75
2021/09/14 05:22:36;;;;;;;3.47;1.80;;;;;;;10.78;100.00;101498.53;6221909;28;20042;-75
2021/09/14 05:25:37;;;;;;;3.17;1.98;;;;;;;10.80;100.00;101489.63;6220981;28;20497;-75
2021/09/14 05:28:42;;;;;;;3.30;1.80;;;;;;;10.81;100.00;101490.47;6221698;28;20189;-75
2021/09/14 05:31:45;;;;;;;3.03;2.00;;;;;;;10.84;100.00;101495.63;6216274;28;20052;-75
2021/09/14 05:34:48;;;;;;;4.45;2.17;;;;;;;10.85;100.00;101485.03;6215950;28;20045;-75
2021/09/14 05:37:49;;;;;;;2.50;1.60;;;;;;;10.89;100.00;101491.88;6217869;28;20053;-75
2021/09/14 05:40:54;;;;;;;3.80;1.90;;;;;;;10.90;100.00;101477.81;6218728;28;20042;-76
2021/09/14 05:43:55;;;;;;;3.13;1.80;;;;;;;10.92;100.00;101475.97;6222904;28;20044;-76
2021/09/14 05:46:58;;;;;;;20.73;9.93;;;;;;;10.93;100.00;101472.41;6226442;28;20053;-76
2021/09/14 05:50:01;;;;;;;12.32;4.43;;;;;;;10.97;100.00;101467.03;6226237;28;20060;-75
2021/09/14 05:53:02;;;;;;;3.78;1.95;;;;;;;10.97;100.00;101473.13;6226226;28;20572;-76
2021/09/14 05:56:04;;;;;;;3.47;2.00;;;;;;;11.04;100.00;101471.13;6225743;28;20073;-75
2021/09/14 05:59:05;;;;;;;3.50;1.73;;;;;;;11.10;100.00;101463.78;6226260;28;20049;-75
2021/09/14 06:02:08;;;;;;;2.42;1.65;;;;;;;11.15;100.00;101461.81;6226119;28;20493;-75
2021/09/14 06:05:09;;;;;;;3.22;1.92;;;;;;;11.20;100.00;101472.13;6225201;28;20065;-75
2021/09/14 06:08:11;;;;;;;4.65;2.47;;;;;;;11.25;100.00;101464.03;6224963;28;20069;-75
2021/09/14 06:11:12;;;;;;;2.60;2.08;;;;;;;11.30;100.00;101456.78;6225905;28;20489;-74
2021/09/14 06:14:14;;;;;;;5.57;2.38;;;;;;;11.35;100.00;101455.66;6225293;28;20098;-74
2021/09/14 06:17:16;;;;;;;5.00;3.05;;;;;;;11.41;100.00;101455.38;6225915;28;20054;-75
2021/09/14 06:20:18;;;;;;;4.78;2.65;;;;;;;11.47;100.00;101450.75;6225840;28;20060;-75
2021/09/14 06:23:19;;;;;;;4.10;2.60;;;;;;;11.54;100.00;101458.31;6225652;28;20494;-75
2021/09/14 06:26:21;;;;;;;3.40;1.85;;;;;;;11.62;100.00;101458.78;6244884;22;20061;-77
2021/09/14 06:29:22;;;;;;;8.40;2.30;;;;;;;11.69;100.00;101467.28;6214372;28;20060;-77
2021/09/14 06:32:25;;;;;;;5.25;2.95;;;;;;;11.76;100.00;101462.56;6222274;28;20513;-78
2021/09/14 06:35:26;;;;;;;3.58;2.17;;;;;;;11.84;100.00;101468.38;6215927;28;20049;-78
2021/09/14 06:38:28;;;;;;;3.25;1.95;;;;;;;11.89;100.00;101463.72;6219215;28;20421;-77
2021/09/14 06:41:29;;;;;;;5.50;2.35;;;;;;;11.95;100.00;101465.25;6214985;28;20049;-78
2021/09/14 06:44:31;;;;;;;4.75;2.17;;;;;;;12.02;100.00;101464.00;6215395;28;20057;-77
2021/09/14 06:47:34;;;;;;;5.05;2.22;;;;;;;12.07;100.00;101459.38;6217513;28;20113;-78
2021/09/14 06:50:35;;;;;;;2.80;1.70;;;;;;;12.11;100.00;101455.66;6213733;28;20053;-78
2021/09/14 06:53:36;;;;;;;4.05;2.38;;;;;;;12.18;100.00;101451.81;6211391;28;20053;-78
2021/09/14 06:56:38;;;;;;;4.07;1.98;;;;;;;12.26;100.00;101454.06;6208175;28;20062;-77
2021/09/14 06:59:39;;;;;;;3.95;2.28;;;;;;;12.35;100.00;101461.50;6215167;28;20053;-78
2021/09/14 07:02:42;;;;;;;5.25;2.25;;;;;;;12.38;100.00;101458.72;6209064;28;20434;-77
2021/09/14 07:05:43;;;;;;;4.22;2.00;;;;;;;12.41;100.00;101467.34;6211287;28;20050;-78
2021/09/14 07:08:44;;;;;;;4.38;2.08;;;;;;;12.47;100.00;101465.34;6213533;28;20069;-78
2021/09/14 07:11:46;;;;;;;2.80;1.80;;;;;;;12.53;100.00;101465.03;6214394;28;20129;-77
2021/09/14 07:14:48;;;;;;;6.60;2.30;;;;;;;12.55;100.00;101469.31;6209141;28;20061;-78
2021/09/14 07:17:50;;;;;;;4.53;1.95;;;;;;;12.60;100.00;101462.00;6209884;28;20494;-78
2021/09/14 07:20:52;;;;;;;4.05;2.33;;;;;;;12.66;100.00;101459.06;6207917;28;20545;-78
2021/09/14 07:23:53;;;;;;;5.70;2.63;;;;;;;12.73;100.00;101462.25;6207989;28;20046;-78
2021/09/14 07:26:55;;;;;;;4.38;2.53;;;;;;;12.78;100.00;101470.78;6208513;28;20042;-77
2021/09/14 07:29:57;;;;;;;5.97;2.63;;;;;;;12.85;100.00;101463.38;6210383;28;20050;-78
2021/09/14 07:32:59;;;;;;;5.18;2.60;;;;;;;12.90;100.00;101459.59;6209129;28;20054;-78
2021/09/14 07:36:01;;;;;;;4.13;2.53;;;;;;;12.97;100.00;101452.22;6214370;28;20472;-78
2021/09/14 07:39:02;;;;;;;4.15;2.30;;;;;;;13.05;100.00;101449.19;6208245;28;20050;-78
2021/09/14 07:42:03;;;;;;;3.00;1.92;;;;;;;13.12;100.00;101443.47;6206703;28;20047;-78
2021/09/14 07:45:06;;;;;;;6.88;2.83;;;;;;;13.24;100.00;101435.91;6205646;28;20054;-77
2021/09/14 07:48:09;;;;;;;5.90;3.25;;;;;;;13.34;100.00;101440.59;6206515;28;20138;-78
2021/09/14 07:51:10;;;;;;;4.32;2.75;;;;;;;13.39;100.00;101433.28;6208639;28;20054;-78
2021/09/14 07:54:11;;;;;;;5.03;2.58;;;;;;;13.47;100.00;101446.06;6209055;28;20100;-78
2021/09/14 07:57:13;;;;;;;4.57;2.53;;;;;;;13.52;100.00;101430.81;6202914;28;20038;-78
2021/09/14 08:00:15;;;;;;;8.07;4.22;;;;;;;13.60;100.00;101430.41;6196438;28;20061;-77
2021/09/14 08:03:17;;;;;;;8.75;3.42;;;;;;;13.67;100.00;101430.00;6187269;28;20060;-78
2021/09/14 08:06:19;;;;;;;8.98;3.72;;;;;;;13.75;100.00;101428.69;6216818;28;20065;-77
2021/09/14 08:09:21;;;;;;;7.60;3.15;;;;;;;13.84;100.00;101429.03;6209518;28;20525;-78
2021/09/14 08:12:23;;;;;;;7.13;2.95;;;;;;;13.89;100.00;101426.97;6206599;28;20129;-79
2021/09/14 08:15:24;;;;;;;7.65;3.42;;;;;;;13.96;100.00;101431.00;6218465;28;20053;-78
2021/09/14 08:18:27;;;;;;;4.82;2.13;;;;;;;14.06;100.00;101436.59;6208641;28;20058;-77
2021/09/14 08:21:28;;;;;;;5.18;2.78;;;;;;;14.12;100.00;101438.03;6208058;28;20046;-78
2021/09/14 08:24:29;;;;;;;5.15;2.70;;;;;;;14.21;100.00;101441.00;6211145;28;20042;-78
2021/09/14 08:27:31;;;;;;;4.78;2.95;;;;;;;14.33;100.00;101441.25;6210142;28;20042;-78
2021/09/14 08:30:32;;;;;;;7.22;3.13;;;;;;;14.39;100.00;101435.59;6210925;28;20050;-78
2021/09/14 08:33:35;;;;;;;5.35;3.05;;;;;;;14.43;100.00;101442.41;6204394;28;20405;-78
2021/09/14 08:36:36;;;;;;;7.13;3.03;;;;;;;14.49;100.00;101444.75;6205232;28;20058;-78
2021/09/14 08:39:38;;;;;;;5.00;2.78;;;;;;;14.52;100.00;101444.56;6203641;28;20049;-78
2021/09/14 08:42:39;;;;;;;8.32;3.10;;;;;;;14.63;100.00;101438.66;6205570;28;20398;-77
2021/09/14 08:45:41;;;;;;;5.75;2.80;;;;;;;14.82;100.00;101438.41;6202963;28;20051;-78
2021/09/14 08:48:43;;;;;;;3.97;2.53;;;;;;;14.91;100.00;101437.84;6206196;28;20057;-78
2021/09/14 08:51:45;;;;;;;4.88;2.83;;;;;;;14.95;100.00;101444.66;6204036;28;20041;-81
2021/09/14 08:54:46;;;;;;;8.90;2.83;;;;;;;15.00;100.00;101434.66;6205831;28;20061;-78
2021/09/14 08:57:50;;;;;;;7.30;3.38;;;;;;;15.09;100.00;101443.81;6201234;28;20046;-78
2021/09/14 09:00:52;;;;;;;6.70;3.40;;;;;;;15.16;100.00;101445.13;6200873;28;20137;-78
2021/09/14 09:03:59;;;;;;;4.15;2.55;;;;;;;15.27;100.00;101440.03;6204286;28;20046;-78
2021/09/14 09:07:00;;;;;;;7.93;2.88;;;;;;;15.33;100.00;101444.94;6193647;28;20049;-78
2021/09/14 09:10:10;;;;;;;3.40;2.70;;;;;;;15.37;100.00;101438.53;6202236;28;20065;-78
2021/09/14 09:13:11;;;;;;;6.53;2.55;;;;;;;15.44;100.00;101437.22;6208230;28;20416;-78
2021/09/14 09:16:18;;;;;;;4.47;2.63;;;;;;;15.48;100.00;101438.69;6207530;28;20054;-78
2021/09/14 09:19:24;;;;;;;5.82;3.38;;;;;;;15.56;100.00;101435.56;6209398;28;20046;-78
2021/09/14 09:22:26;;;;;;;9.10;2.85;;;;;;;15.66;100.00;101433.22;6209145;28;20050;-78
2021/09/14 09:25:27;;;;;;;3.75;2.63;;;;;;;15.73;100.00;101431.88;6216899;28;20046;-78
2021/09/14 09:28:29;;;;;;;7.45;3.35;;;;;;;15.84;100.00;101432.03;6208967;28;20062;-78
2021/09/14 09:31:30;;;;;;;5.30;3.05;;;;;;;15.91;100.00;101428.03;6209562;28;20054;-78
2021/09/14 09:34:33;;;;;;;6.95;2.88;;;;;;;16.01;100.00;101427.44;6210736;28;20046;-78
2021/09/14 09:37:34;;;;;;;5.65;2.33;;;;;;;16.09;100.00;101425.16;6208484;28;20498;-78
2021/09/14 09:40:38;;;;;;;5.55;2.33;;;;;;;16.18;100.00;101414.78;6209328;28;20053;-78
2021/09/14 09:43:39;;;;;;;8.50;3.45;;;;;;;16.24;100.00;101417.03;6209328;28;20046;-78
2021/09/14 09:46:41;;;;;;;5.25;3.28;;;;;;;16.29;100.00;101414.06;6209176;28;20465;-78
2021/09/14 09:49:44;;;;;;;6.50;3.50;;;;;;;16.35;100.00;101415.44;6209147;28;20062;-78
2021/09/14 09:52:46;;;;;;;4.47;2.88;;;;;;;16.45;100.00;101413.91;6209117;28;20050;-78
2021/09/14 09:55:47;;;;;;;4.97;3.50;;;;;;;16.54;100.00;101413.28;6210678;28;20050;-78
2021/09/14 09:58:51;;;;;;;6.95;3.58;;;;;;;16.67;100.00;101415.97;6209764;28;20050;-78
2021/09/14 10:02:14;;;;;;;5.65;2.97;;;;;;;16.80;100.00;101408.00;6204529;28;20057;-78
2021/09/14 10:05:20;;;;;;;6.30;3.45;;;;;;;16.92;100.00;101409.81;6204411;28;20402;-78
2021/09/14 10:08:24;;;;;;;7.07;3.53;;;;;;;16.98;100.00;101402.28;6210307;28;20456;-79
2021/09/14 10:11:27;;;;;;;7.43;3.95;;;;;;;17.07;100.00;101403.44;6210750;28;20486;-78
2021/09/14 10:14:28;;;;;;;7.80;2.97;;;;;;;17.16;100.00;101394.81;6211168;28;20043;-78
2021/09/14 10:17:30;;;;;;;9.13;3.60;;;;;;;17.20;100.00;101392.81;6212615;28;20050;-78
2021/09/14 10:20:39;;;;;;;4.88;3.28;;;;;;;17.29;100.00;101393.97;6212350;28;20058;-78
2021/09/14 10:23:41;;;;;;;3.80;2.88;;;;;;;17.41;100.00;101387.78;6212836;28;20050;-79
2021/09/14 10:26:42;;;;;;;5.45;3.28;;;;;;;17.58;100.00;101378.59;6212801;28;20058;-78
2021/09/14 10:29:44;;;;;;;4.55;3.00;;;;;;;17.68;100.00;101371.63;6211220;28;20395;-79
2021/09/14 10:32:46;;;;;;;4.38;2.42;;;;;;;17.85;100.00;101370.41;6211821;28;20050;-79
2021/09/14 10:35:49;;;;;;;5.85;3.20;;;;;;;17.98;100.00;101364.06;6211597;28;20058;-78
2021/09/14 10:38:50;;;;;;;5.40;3.58;;;;;;;17.98;100.00;101357.91;6214173;28;20142;-79
2021/09/14 10:41:52;;;;;;;5.15;3.00;;;;;;;18.15;100.00;101356.66;6213373;28;20457;-78
2021/09/14 10:44:54;;;;;;;4.22;2.92;;;;;;;18.27;100.00;101357.53;6212989;28;20050;-78
2021/09/14 10:47:56;;;;;;;4.88;2.92;;;;;;;18.38;100.00;101365.53;6213439;28;20113;-79
2021/09/14 10:51:11;;;;;;;5.13;3.20;;;;;;;18.52;100.00;101365.31;6213676;28;20054;-78
2021/09/14 10:54:20;;;;;;;5.13;3.50;;;;;;;18.69;99.56;101353.41;6201228;28;20050;-78
2021/09/14 10:57:32;;;;;;;5.82;3.55;;;;;;;18.85;97.15;101353.94;6201065;28;20418;-78
2021/09/14 11:00:35;;;;;;;4.32;3.00;;;;;;;19.01;97.73;101353.56;6201323;28;20061;-78
2021/09/14 11:03:37;;;;;;;3.97;2.40;;;;;;;19.18;96.44;101353.06;6200549;28;20057;-75
2021/09/14 11:06:39;;;;;;;5.28;3.42;;;;;;;19.34;93.34;101346.50;6201703;28;20054;-78
2021/09/14 11:09:41;;;;;;;5.72;3.13;;;;;;;19.52;91.42;101337.00;6201917;28;20050;-78
2021/09/14 11:12:46;;;;;;;4.80;3.10;;;;;;;19.67;90.90;101340.28;6201523;28;20073;-76
2021/09/14 11:15:48;;;;;;;3.92;2.78;;;;;;;19.83;89.39;101346.03;6200429;28;20046;-78
2021/09/14 11:18:50;;;;;;;4.25;2.85;;;;;;;19.92;88.30;101339.09;6203840;28;20058;-78
2021/09/14 11:21:53;;;;;;;4.53;2.80;;;;;;;20.10;87.99;101334.88;6204689;28;20047;-78
2021/09/14 11:24:54;;;;;;;5.80;2.25;;;;;;;20.33;84.78;101337.41;6201226;28;20417;-76
2021/09/14 11:27:56;;;;;;;4.00;2.50;;;;;;;20.53;83.79;101347.28;6199959;28;20061;-78
2021/09/14 11:31:00;;;;;;;4.75;1.98;;;;;;;20.76;79.22;101339.97;6194035;28;20480;-78
2021/09/14 11:34:03;;;;;;;2.90;2.10;;;;;;;21.00;79.99;101336.97;6195240;28;20046;-78
2021/09/14 11:37:05;;;;;;;4.00;2.33;;;;;;;21.11;78.31;101336.84;6201624;28;20054;-78
2021/09/14 11:40:17;;;;;;;2.65;1.92;;;;;;;21.35;79.24;101333.88;6201285;28;20058;-78
2021/09/14 11:43:20;;;;;;;2.20;1.90;;;;;;;21.56;76.89;101331.06;6200978;28;20050;-78
2021/09/14 11:46:22;;;;;;;4.30;2.20;;;;;;;21.78;75.84;101330.81;6200699;28;20061;-78
2021/09/14 11:49:28;;;;;;;2.15;1.95;;;;;;;21.99;74.68;101324.50;6201749;28;20054;-78
2021/09/14 11:52:30;;;;;;;3.67;1.92;;;;;;;22.11;74.45;101322.50;6202168;28;20050;-78
2021/09/14 11:55:32;;;;;;;6.53;1.95;;;;;;;22.18;72.67;101326.34;6202043;28;20057;-78
2021/09/14 11:58:34;;;;;;;2.42;2.00;;;;;;;22.15;72.77;101313.22;6202604;28;20244;-78
2021/09/14 12:01:36;;;;;;;2.72;1.88;;;;;;;22.21;76.01;101316.19;6202256;28;20054;-78
2021/09/14 12:04:37;;;;;;;2.65;1.83;;;;;;;22.36;74.88;101313.06;6202018;28;20050;-76
2021/09/14 12:07:40;;;;;;;3.10;2.10;;;;;;;22.45;71.60;101310.34;6203189;28;20095;-79
2021/09/14 12:10:52;;;;;;;2.00;1.55;;;;;;;22.47;72.36;101302.16;6202359;28;20466;-77
2021/09/14 12:13:56;;;;;;;2.65;1.88;;;;;;;22.19;71.68;101298.56;6202369;28;20051;-78
2021/09/14 12:16:59;;;;;;;2.55;2.10;;;;;;;22.15;71.66;101294.47;6203602;28;20613;-76
2021/09/14 12:20:01;;;;;;;3.03;1.90;;;;;;;22.11;72.11;101295.72;6202821;28;20058;-77
2021/09/14 12:23:03;;;;;;;2.58;1.73;;;;;;;22.20;72.96;101277.00;6204466;28;20054;-77
2021/09/14 12:26:16;;;;;;;2.65;1.83;;;;;;;22.37;74.76;101280.75;6202861;28;20053;-76
2021/09/14 12:29:19;;;;;;;3.70;1.77;;;;;;;22.36;73.80;101268.38;6255317;23;20425;-74
2021/09/14 12:32:20;;;;;;;3.05;1.90;;;;;;;22.48;73.78;101277.91;6235938;28;20054;-74
2021/09/14 12:35:21;;;;;;;3.08;2.22;;;;;;;22.70;72.06;101268.66;6223643;28;20057;-74
2021/09/14 12:38:24;;;;;;;2.10;1.50;;;;;;;22.86;72.25;101269.88;6247009;28;20060;-74
2021/09/14 12:41:25;;;;;;;4.60;1.50;;;;;;;22.84;70.84;101255.75;6241515;28;20049;-72
2021/09/14 12:44:27;;;;;;;4.13;1.55;;;;;;;22.92;71.35;101263.94;6246602;28;20041;-76
2021/09/14 12:47:28;;;;;;;3.05;1.88;;;;;;;22.80;71.80;101271.31;6233950;28;20416;-74
2021/09/14 12:50:29;;;;;;;1.55;1.45;;;;;;;22.71;71.96;101262.31;6232997;28;20049;-74
2021/09/14 12:53:32;;;;;;;3.13;2.08;;;;;;;22.64;71.97;101263.03;6222257;28;20053;-74
2021/09/14 12:56:34;;;;;;;2.70;1.80;;;;;;;22.71;71.95;101262.31;6222268;28;20508;-74
2021/09/14 12:59:35;;;;;;;2.85;1.83;;;;;;;22.90;70.80;101253.38;6222609;28;20060;-74
2021/09/14 13:02:36;;;;;;;3.33;2.00;;;;;;;23.16;69.96;101245.41;6240720;28;20069;-74
2021/09/14 13:05:38;;;;;;;2.10;1.58;;;;;;;23.55;67.99;101256.72;6261085;28;20049;-74
2021/09/14 13:08:40;;;;;;;2.25;1.55;;;;;;;23.72;67.37;101247.00;6251923;28;20052;-75
2021/09/14 13:11:42;;;;;;;2.45;1.65;;;;;;;23.58;69.08;101254.75;6259870;28;20053;-74
2021/09/14 13:18:02;;;;;;;1.77;1.42;;;;;;;23.72;68.26;101246.16;6222190;28;20081;-74
2021/09/14 13:21:05;;;;;;;2.70;1.55;;;;;;;23.92;67.07;101233.38;6246059;28;20128;-75
2021/09/14 13:24:07;;;;;;;2.38;1.77;;;;;;;24.17;66.04;101229.03;6261581;28;20045;-74
2021/09/14 13:27:09;;;;;;;2.58;1.80;;;;;;;24.37;64.57;101230.53;6255818;28;20053;-75
2021/09/14 13:30:11;;;;;;;4.13;1.40;;;;;;;24.47;65.38;101220.47;6271368;28;20052;-74
2021/09/14 13:33:12;;;;;;;1.60;1.50;;;;;;;24.49;63.41;101223.88;6271059;28;20040;-74
2021/09/14 13:36:15;;;;;;;1.90;1.40;;;;;;;24.60;63.24;101208.47;6270979;28;20053;-75
2021/09/14 13:39:17;;;;;;;1.60;1.45;;;;;;;24.60;64.37;101209.28;6263902;28;20135;-75
2021/09/14 13:42:23;;;;;;;2.92;1.73;;;;;;;24.64;64.52;101202.59;6246321;28;20615;-75
2021/09/14 13:48:48;;;;;;;1.85;1.25;;;;;;;24.96;63.22;101214.44;6226307;28;20038;-75
2021/09/14 13:51:50;;;;;;;3.70;1.98;;;;;;;24.88;64.15;101206.34;6246142;28;20045;-75
2021/09/14 13:54:53;;;;;;;1.42;1.33;;;;;;;24.80;63.02;101202.66;6245450;28;20050;-76
2021/09/14 13:57:54;;;;;;;4.40;1.60;;;;;;;24.73;65.14;101198.09;6245102;28;20064;-76
2021/09/14 14:00:56;;;;;;;1.38;1.17;;;;;;;24.70;65.50;101193.03;6246787;28;20053;-76
2021/09/14 14:03:57;;;;;;;1.33;1.20;;;;;;;24.69;65.03;101196.72;6249104;28;20416;-76
2021/09/14 14:06:59;;;;;;;1.50;1.20;;;;;;;24.66;63.25;101192.50;6249682;28;20057;-76
2021/09/14 14:10:02;;;;;;;1.48;1.33;;;;;;;24.68;62.71;101192.38;6251484;28;20049;-76
2021/09/14 14:13:03;;;;;;;1.90;1.55;;;;;;;24.72;64.71;101194.56;6251069;28;20057;-75
2021/09/14 14:16:05;;;;;;;3.17;1.52;;;;;;;24.64;63.02;101191.84;6239999;28;20060;-75
2021/09/14 14:19:07;;;;;;;2.05;1.63;;;;;;;24.60;65.35;101186.97;6237022;28;20046;-75
2021/09/14 14:22:09;;;;;;;2.88;2.20;;;;;;;24.39;65.71;101196.28;6232138;28;20138;-76
2021/09/14 14:25:12;;;;;;;2.75;1.60;;;;;;;24.37;66.45;101195.59;6225723;28;20049;-76
2021/09/14 14:28:13;;;;;;;1.73;1.50;;;;;;;24.31;66.84;101193.53;6225813;28;20049;-76
2021/09/14 14:31:14;;;;;;;1.67;1.45;;;;;;;24.27;66.83;101190.31;6225670;28;20061;-75
2021/09/14 14:34:16;;;;;;;1.60;1.40;;;;;;;24.20;65.87;101186.56;6225330;28;20432;-75
2021/09/14 14:37:17;;;;;;;1.92;1.55;;;;;;;24.12;67.02;101191.06;6225533;28;20046;-76
2021/09/14 14:40:20;;;;;;;2.25;1.50;;;;;;;24.03;66.45;101191.03;6226655;28;20489;-77
2021/09/14 14:43:21;;;;;;;2.35;1.77;;;;;;;23.89;67.67;101188.94;6232806;28;20670;-74
2021/09/14 14:46:24;;;;;;;2.45;1.80;;;;;;;23.90;67.77;101192.44;6257136;28;20049;-75
2021/09/14 14:49:25;;;;;;;1.90;1.50;;;;;;;23.74;69.30;101182.44;6263217;28;20046;-76